sensor_id;sensor_type;location;lat;lon;timestamp;temperature;humidity
31675;DHT22;18276;45.520;11.018;2023-08-07T00:02:09;17.60;71.20
31675;DHT22;18276;45.520;11.018;2023-08-07T00:04:36;17.50;71.50
31675;DHT22;18276;45.520;11.018;2023-08-07T00:07:02;17.50;71.80
31675;DHT22;18276;45.520;11.018;2023-08-07T00:09:30;17.40;71.90
31675;DHT22;18276;45.520;11.018;2023-08-07T00:11:57;17.40;71.60
31675;DHT22;18276;45.520;11.018;2023-08-07T00:14:24;17.30;71.20
31675;DHT22;18276;45.520;11.018;2023-08-07T00:16:51;17.30;70.90
31675;DHT22;18276;45.520;11.018;2023-08-07T00:19:18;17.30;70.80
31675;DHT22;18276;45.520;11.018;2023-08-07T00:21:44;17.20;70.50
31675;DHT22;18276;45.520;11.018;2023-08-07T00:24:12;17.20;70.20
31675;DHT22;18276;45.520;11.018;2023-08-07T00:26:39;17.20;69.90
31675;DHT22;18276;45.520;11.018;2023-08-07T00:29:06;17.20;69.70
31675;DHT22;18276;45.520;11.018;2023-08-07T00:31:33;17.10;69.60
31675;DHT22;18276;45.520;11.018;2023-08-07T00:34:00;17.10;69.60
31675;DHT22;18276;45.520;11.018;2023-08-07T00:36:29;17.10;69.60
31675;DHT22;18276;45.520;11.018;2023-08-07T00:38:56;17.10;69.40
31675;DHT22;18276;45.520;11.018;2023-08-07T00:41:22;17.10;69.10
31675;DHT22;18276;45.520;11.018;2023-08-07T00:43:49;17.10;68.50
31675;DHT22;18276;45.520;11.018;2023-08-07T00:46:17;17.00;68.30
31675;DHT22;18276;45.520;11.018;2023-08-07T00:48:45;17.00;68.30
31675;DHT22;18276;45.520;11.018;2023-08-07T00:51:12;17.00;68.40
31675;DHT22;18276;45.520;11.018;2023-08-07T00:53:39;17.00;68.70
31675;DHT22;18276;45.520;11.018;2023-08-07T00:56:06;16.90;68.90
31675;DHT22;18276;45.520;11.018;2023-08-07T00:58:34;16.90;69.10
31675;DHT22;18276;45.520;11.018;2023-08-07T01:01:02;16.80;69.00
31675;DHT22;18276;45.520;11.018;2023-08-07T01:03:29;16.80;68.80
31675;DHT22;18276;45.520;11.018;2023-08-07T01:05:56;16.70;68.70
31675;DHT22;18276;45.520;11.018;2023-08-07T01:08:24;16.60;68.60
31675;DHT22;18276;45.520;11.018;2023-08-07T01:16:37;16.50;68.30
31675;DHT22;18276;45.520;11.018;2023-08-07T01:19:09;16.50;68.20
31675;DHT22;18276;45.520;11.018;2023-08-07T01:21:39;16.40;68.20
31675;DHT22;18276;45.520;11.018;2023-08-07T01:24:07;16.40;68.30
31675;DHT22;18276;45.520;11.018;2023-08-07T01:26:34;16.30;68.10
31675;DHT22;18276;45.520;11.018;2023-08-07T01:29:04;16.20;67.80
31675;DHT22;18276;45.520;11.018;2023-08-07T01:31:33;16.30;67.90
31675;DHT22;18276;45.520;11.018;2023-08-07T01:34:04;16.20;67.80
31675;DHT22;18276;45.520;11.018;2023-08-07T01:36:31;16.20;67.70
31675;DHT22;18276;45.520;11.018;2023-08-07T01:38:59;16.10;67.50
31675;DHT22;18276;45.520;11.018;2023-08-07T01:41:26;16.10;67.40
31675;DHT22;18276;45.520;11.018;2023-08-07T01:43:54;16.10;67.30
31675;DHT22;18276;45.520;11.018;2023-08-07T01:46:21;16.00;67.10
31675;DHT22;18276;45.520;11.018;2023-08-07T01:48:48;16.00;66.70
31675;DHT22;18276;45.520;11.018;2023-08-07T01:51:15;16.00;66.50
31675;DHT22;18276;45.520;11.018;2023-08-07T01:53:42;16.00;66.50
31675;DHT22;18276;45.520;11.018;2023-08-07T01:56:09;16.00;66.40
31675;DHT22;18276;45.520;11.018;2023-08-07T01:58:36;16.00;66.30
31675;DHT22;18276;45.520;11.018;2023-08-07T02:01:03;16.00;66.10
31675;DHT22;18276;45.520;11.018;2023-08-07T02:03:29;16.00;66.00
31675;DHT22;18276;45.520;11.018;2023-08-07T02:05:57;16.00;65.90
31675;DHT22;18276;45.520;11.018;2023-08-07T02:08:24;16.00;65.70
31675;DHT22;18276;45.520;11.018;2023-08-07T02:10:51;16.00;65.60
31675;DHT22;18276;45.520;11.018;2023-08-07T02:13:19;16.00;65.50
31675;DHT22;18276;45.520;11.018;2023-08-07T02:15:46;16.00;65.20
31675;DHT22;18276;45.520;11.018;2023-08-07T02:18:13;16.00;65.20
31675;DHT22;18276;45.520;11.018;2023-08-07T02:20:39;16.00;65.30
31675;DHT22;18276;45.520;11.018;2023-08-07T02:23:06;16.00;65.20
31675;DHT22;18276;45.520;11.018;2023-08-07T02:25:34;15.90;65.20
31675;DHT22;18276;45.520;11.018;2023-08-07T02:28:01;15.90;65.80
31675;DHT22;18276;45.520;11.018;2023-08-07T02:30:28;15.90;66.00
31675;DHT22;18276;45.520;11.018;2023-08-07T02:32:54;15.90;66.20
31675;DHT22;18276;45.520;11.018;2023-08-07T02:35:21;15.90;66.40
31675;DHT22;18276;45.520;11.018;2023-08-07T02:37:50;15.90;66.20
31675;DHT22;18276;45.520;11.018;2023-08-07T02:40:17;15.90;66.00
31675;DHT22;18276;45.520;11.018;2023-08-07T02:42:45;16.00;65.90
31675;DHT22;18276;45.520;11.018;2023-08-07T02:45:13;16.00;65.50
31675;DHT22;18276;45.520;11.018;2023-08-07T02:47:40;16.10;64.90
31675;DHT22;18276;45.520;11.018;2023-08-07T02:50:07;16.10;64.40
31675;DHT22;18276;45.520;11.018;2023-08-07T02:52:34;16.10;64.10
31675;DHT22;18276;45.520;11.018;2023-08-07T02:55:00;16.10;63.80
31675;DHT22;18276;45.520;11.018;2023-08-07T02:57:27;16.20;63.50
31675;DHT22;18276;45.520;11.018;2023-08-07T02:59:54;16.20;63.30
31675;DHT22;18276;45.520;11.018;2023-08-07T03:02:21;16.30;63.20
31675;DHT22;18276;45.520;11.018;2023-08-07T03:04:48;16.30;63.00
31675;DHT22;18276;45.520;11.018;2023-08-07T03:07:15;16.30;62.90
31675;DHT22;18276;45.520;11.018;2023-08-07T03:09:44;16.40;62.90
31675;DHT22;18276;45.520;11.018;2023-08-07T03:12:11;16.40;63.00
31675;DHT22;18276;45.520;11.018;2023-08-07T03:14:38;16.30;63.00
31675;DHT22;18276;45.520;11.018;2023-08-07T03:17:05;16.20;63.00
31675;DHT22;18276;45.520;11.018;2023-08-07T03:19:32;16.20;63.20
31675;DHT22;18276;45.520;11.018;2023-08-07T03:21:59;16.10;63.10
31675;DHT22;18276;45.520;11.018;2023-08-07T03:24:26;16.00;63.20
31675;DHT22;18276;45.520;11.018;2023-08-07T03:26:53;15.90;63.50
31675;DHT22;18276;45.520;11.018;2023-08-07T03:29:20;15.90;63.50
31675;DHT22;18276;45.520;11.018;2023-08-07T03:31:47;15.80;63.30
31675;DHT22;18276;45.520;11.018;2023-08-07T03:34:14;15.80;63.20
31675;DHT22;18276;45.520;11.018;2023-08-07T03:36:41;15.80;63.20
31675;DHT22;18276;45.520;11.018;2023-08-07T03:39:08;15.80;63.00
31675;DHT22;18276;45.520;11.018;2023-08-07T03:41:38;15.80;63.00
31675;DHT22;18276;45.520;11.018;2023-08-07T03:44:07;15.80;62.80
31675;DHT22;18276;45.520;11.018;2023-08-07T03:46:34;15.80;62.30
31675;DHT22;18276;45.520;11.018;2023-08-07T03:49:01;15.80;62.00
31675;DHT22;18276;45.520;11.018;2023-08-07T03:51:29;15.80;61.50
31675;DHT22;18276;45.520;11.018;2023-08-07T03:53:57;15.80;61.10
31675;DHT22;18276;45.520;11.018;2023-08-07T03:56:24;15.80;60.90
31675;DHT22;18276;45.520;11.018;2023-08-07T03:58:51;15.90;61.10
31675;DHT22;18276;45.520;11.018;2023-08-07T04:01:21;15.80;61.10
31675;DHT22;18276;45.520;11.018;2023-08-07T04:03:49;15.80;60.80
31675;DHT22;18276;45.520;11.018;2023-08-07T04:06:17;15.80;60.80
31675;DHT22;18276;45.520;11.018;2023-08-07T04:08:46;15.80;60.60
31675;DHT22;18276;45.520;11.018;2023-08-07T04:11:13;15.80;60.40
31675;DHT22;18276;45.520;11.018;2023-08-07T04:13:40;15.80;60.20
31675;DHT22;18276;45.520;11.018;2023-08-07T04:16:07;15.80;60.00
31675;DHT22;18276;45.520;11.018;2023-08-07T04:18:34;15.80;59.90
31675;DHT22;18276;45.520;11.018;2023-08-07T04:21:02;15.80;59.60
31675;DHT22;18276;45.520;11.018;2023-08-07T04:23:31;15.90;59.60
31675;DHT22;18276;45.520;11.018;2023-08-07T04:25:58;15.90;59.50
31675;DHT22;18276;45.520;11.018;2023-08-07T04:28:27;15.90;59.40
31675;DHT22;18276;45.520;11.018;2023-08-07T04:30:55;16.00;59.30
31675;DHT22;18276;45.520;11.018;2023-08-07T04:33:22;16.00;59.30
31675;DHT22;18276;45.520;11.018;2023-08-07T04:35:48;16.00;59.30
31675;DHT22;18276;45.520;11.018;2023-08-07T04:38:16;16.00;59.10
31675;DHT22;18276;45.520;11.018;2023-08-07T04:40:47;16.10;59.10
31675;DHT22;18276;45.520;11.018;2023-08-07T04:43:18;16.10;59.00
31675;DHT22;18276;45.520;11.018;2023-08-07T04:45:46;16.20;58.90
31675;DHT22;18276;45.520;11.018;2023-08-07T04:48:13;16.20;58.70
31675;DHT22;18276;45.520;11.018;2023-08-07T04:50:40;16.20;58.50
31675;DHT22;18276;45.520;11.018;2023-08-07T04:53:08;16.20;58.50
31675;DHT22;18276;45.520;11.018;2023-08-07T04:55:35;16.30;58.60
31675;DHT22;18276;45.520;11.018;2023-08-07T04:58:02;16.30;58.40
31675;DHT22;18276;45.520;11.018;2023-08-07T05:00:29;16.40;58.20
31675;DHT22;18276;45.520;11.018;2023-08-07T05:02:56;16.50;57.80
31675;DHT22;18276;45.520;11.018;2023-08-07T05:05:23;16.60;57.60
31675;DHT22;18276;45.520;11.018;2023-08-07T05:07:51;16.70;56.90
31675;DHT22;18276;45.520;11.018;2023-08-07T05:10:19;17.00;56.90
31675;DHT22;18276;45.520;11.018;2023-08-07T05:12:46;17.60;56.70
31675;DHT22;18276;45.520;11.018;2023-08-07T05:15:13;18.40;56.00
31675;DHT22;18276;45.520;11.018;2023-08-07T05:17:41;19.30;54.70
31675;DHT22;18276;45.520;11.018;2023-08-07T05:20:08;20.20;53.80
31675;DHT22;18276;45.520;11.018;2023-08-07T05:22:36;20.90;52.10
31675;DHT22;18276;45.520;11.018;2023-08-07T05:25:04;21.30;51.00
31675;DHT22;18276;45.520;11.018;2023-08-07T05:27:31;21.50;50.60
31675;DHT22;18276;45.520;11.018;2023-08-07T05:29:59;21.50;49.80
31675;DHT22;18276;45.520;11.018;2023-08-07T05:32:25;21.60;49.80
31675;DHT22;18276;45.520;11.018;2023-08-07T05:34:52;22.10;49.40
31675;DHT22;18276;45.520;11.018;2023-08-07T05:37:19;22.80;48.50
31675;DHT22;18276;45.520;11.018;2023-08-07T05:39:46;23.40;47.70
31675;DHT22;18276;45.520;11.018;2023-08-07T05:42:13;23.90;46.60
31675;DHT22;18276;45.520;11.018;2023-08-07T05:44:40;24.50;46.00
31675;DHT22;18276;45.520;11.018;2023-08-07T05:47:07;25.00;44.90
31675;DHT22;18276;45.520;11.018;2023-08-07T05:49:34;25.30;42.50
31675;DHT22;18276;45.520;11.018;2023-08-07T05:52:00;25.60;43.00
31675;DHT22;18276;45.520;11.018;2023-08-07T05:54:27;26.10;43.00
31675;DHT22;18276;45.520;11.018;2023-08-07T05:56:54;26.50;42.40
31675;DHT22;18276;45.520;11.018;2023-08-07T05:59:22;27.00;42.00
31675;DHT22;18276;45.520;11.018;2023-08-07T06:01:49;27.40;41.00
31675;DHT22;18276;45.520;11.018;2023-08-07T06:04:16;27.60;40.50
31675;DHT22;18276;45.520;11.018;2023-08-07T06:06:43;26.70;40.50
31675;DHT22;18276;45.520;11.018;2023-08-07T06:09:10;25.60;41.70
31675;DHT22;18276;45.520;11.018;2023-08-07T06:11:37;24.60;42.80
31675;DHT22;18276;45.520;11.018;2023-08-07T06:14:04;23.80;43.80
31675;DHT22;18276;45.520;11.018;2023-08-07T06:16:31;23.40;45.00
31675;DHT22;18276;45.520;11.018;2023-08-07T06:18:58;23.40;45.20
31675;DHT22;18276;45.520;11.018;2023-08-07T06:21:25;23.40;45.40
31675;DHT22;18276;45.520;11.018;2023-08-07T06:23:52;24.20;45.30
31675;DHT22;18276;45.520;11.018;2023-08-07T06:26:19;25.50;43.70
31675;DHT22;18276;45.520;11.018;2023-08-07T06:28:46;26.10;42.90
31675;DHT22;18276;45.520;11.018;2023-08-07T06:31:13;26.40;43.70
31675;DHT22;18276;45.520;11.018;2023-08-07T06:33:40;27.40;41.70
31675;DHT22;18276;45.520;11.018;2023-08-07T06:36:07;28.30;40.70
31675;DHT22;18276;45.520;11.018;2023-08-07T06:38:37;29.20;39.90
31675;DHT22;18276;45.520;11.018;2023-08-07T06:41:04;29.90;39.00
31675;DHT22;18276;45.520;11.018;2023-08-07T06:43:31;30.50;37.90
31675;DHT22;18276;45.520;11.018;2023-08-07T06:45:58;30.80;37.20
31675;DHT22;18276;45.520;11.018;2023-08-07T06:48:25;31.10;36.90
31675;DHT22;18276;45.520;11.018;2023-08-07T06:50:52;31.50;36.80
31675;DHT22;18276;45.520;11.018;2023-08-07T06:53:19;32.20;36.50
31675;DHT22;18276;45.520;11.018;2023-08-07T06:55:46;32.80;36.20
31675;DHT22;18276;45.520;11.018;2023-08-07T06:58:13;33.30;35.70
31675;DHT22;18276;45.520;11.018;2023-08-07T07:00:40;34.00;35.30
31675;DHT22;18276;45.520;11.018;2023-08-07T07:03:07;34.70;34.50
31675;DHT22;18276;45.520;11.018;2023-08-07T07:05:36;35.10;33.10
31675;DHT22;18276;45.520;11.018;2023-08-07T07:08:03;35.50;32.90
31675;DHT22;18276;45.520;11.018;2023-08-07T07:10:31;35.90;32.50
31675;DHT22;18276;45.520;11.018;2023-08-07T07:12:58;36.30;32.30
31675;DHT22;18276;45.520;11.018;2023-08-07T07:15:25;36.80;31.70
31675;DHT22;18276;45.520;11.018;2023-08-07T07:17:52;37.00;30.50
31675;DHT22;18276;45.520;11.018;2023-08-07T07:20:19;37.00;29.50
31675;DHT22;18276;45.520;11.018;2023-08-07T07:22:47;37.00;29.10
31675;DHT22;18276;45.520;11.018;2023-08-07T07:25:14;36.90;28.80
31675;DHT22;18276;45.520;11.018;2023-08-07T07:27:41;36.90;28.40
31675;DHT22;18276;45.520;11.018;2023-08-07T07:30:08;37.00;27.90
31675;DHT22;18276;45.520;11.018;2023-08-07T07:32:35;37.00;27.60
31675;DHT22;18276;45.520;11.018;2023-08-07T07:35:02;36.80;27.20
31675;DHT22;18276;45.520;11.018;2023-08-07T07:37:30;36.50;28.00
31675;DHT22;18276;45.520;11.018;2023-08-07T07:39:58;36.50;27.60
31675;DHT22;18276;45.520;11.018;2023-08-07T07:42:25;36.50;27.80
31675;DHT22;18276;45.520;11.018;2023-08-07T07:44:53;36.20;27.30
31675;DHT22;18276;45.520;11.018;2023-08-07T07:47:20;35.90;27.40
31675;DHT22;18276;45.520;11.018;2023-08-07T07:49:47;36.00;28.00
31675;DHT22;18276;45.520;11.018;2023-08-07T07:52:14;36.00;27.80
31675;DHT22;18276;45.520;11.018;2023-08-07T07:54:41;35.80;27.80
31675;DHT22;18276;45.520;11.018;2023-08-07T07:57:08;35.60;28.40
31675;DHT22;18276;45.520;11.018;2023-08-07T07:59:35;35.60;27.90
31675;DHT22;18276;45.520;11.018;2023-08-07T08:02:03;35.50;28.30
31675;DHT22;18276;45.520;11.018;2023-08-07T08:04:30;35.30;28.30
31675;DHT22;18276;45.520;11.018;2023-08-07T08:06:58;35.20;28.40
31675;DHT22;18276;45.520;11.018;2023-08-07T08:09:26;35.40;29.10
31675;DHT22;18276;45.520;11.018;2023-08-07T08:11:53;35.80;29.30
31675;DHT22;18276;45.520;11.018;2023-08-07T08:14:21;36.20;29.10
31675;DHT22;18276;45.520;11.018;2023-08-07T08:16:48;36.20;28.90
31675;DHT22;18276;45.520;11.018;2023-08-07T08:19:15;36.20;29.30
31675;DHT22;18276;45.520;11.018;2023-08-07T08:21:43;36.20;29.20
31675;DHT22;18276;45.520;11.018;2023-08-07T08:24:10;36.00;29.40
31675;DHT22;18276;45.520;11.018;2023-08-07T08:26:37;36.10;29.80
31675;DHT22;18276;45.520;11.018;2023-08-07T08:29:05;36.20;29.40
31675;DHT22;18276;45.520;11.018;2023-08-07T08:31:32;36.10;30.00
31675;DHT22;18276;45.520;11.018;2023-08-07T08:33:59;35.90;29.50
31675;DHT22;18276;45.520;11.018;2023-08-07T08:36:26;35.70;28.90
31675;DHT22;18276;45.520;11.018;2023-08-07T08:38:53;35.70;28.90
31675;DHT22;18276;45.520;11.018;2023-08-07T08:41:20;35.80;29.10
31675;DHT22;18276;45.520;11.018;2023-08-07T08:43:47;36.20;28.60
31675;DHT22;18276;45.520;11.018;2023-08-07T08:46:16;36.70;28.50
31675;DHT22;18276;45.520;11.018;2023-08-07T08:48:49;37.00;27.70
31675;DHT22;18276;45.520;11.018;2023-08-07T08:51:16;37.10;27.50
31675;DHT22;18276;45.520;11.018;2023-08-07T08:53:45;37.40;27.70
31675;DHT22;18276;45.520;11.018;2023-08-07T08:56:13;37.80;26.90
31675;DHT22;18276;45.520;11.018;2023-08-07T08:58:40;38.00;26.70
31675;DHT22;18276;45.520;11.018;2023-08-07T09:01:07;38.00;25.90
31675;DHT22;18276;45.520;11.018;2023-08-07T09:03:36;37.60;26.40
31675;DHT22;18276;45.520;11.018;2023-08-07T09:06:03;37.60;26.70
31675;DHT22;18276;45.520;11.018;2023-08-07T09:08:30;37.70;27.10
31675;DHT22;18276;45.520;11.018;2023-08-07T09:10:57;37.90;27.00
31675;DHT22;18276;45.520;11.018;2023-08-07T09:13:24;38.10;27.10
31675;DHT22;18276;45.520;11.018;2023-08-07T09:15:51;38.00;26.90
31675;DHT22;18276;45.520;11.018;2023-08-07T09:18:19;38.20;26.50
31675;DHT22;18276;45.520;11.018;2023-08-07T09:20:47;38.60;26.00
31675;DHT22;18276;45.520;11.018;2023-08-07T09:23:15;38.50;25.40
31675;DHT22;18276;45.520;11.018;2023-08-07T09:25:43;38.30;25.20
31675;DHT22;18276;45.520;11.018;2023-08-07T09:28:10;38.20;25.40
31675;DHT22;18276;45.520;11.018;2023-08-07T09:30:38;38.40;25.90
31675;DHT22;18276;45.520;11.018;2023-08-07T09:33:05;38.70;24.90
31675;DHT22;18276;45.520;11.018;2023-08-07T09:35:33;38.90;24.10
31675;DHT22;18276;45.520;11.018;2023-08-07T09:38:00;38.60;23.00
31675;DHT22;18276;45.520;11.018;2023-08-07T09:40:29;38.20;23.90
31675;DHT22;18276;45.520;11.018;2023-08-07T09:43:00;37.00;24.30
31675;DHT22;18276;45.520;11.018;2023-08-07T09:45:27;35.50;24.60
31675;DHT22;18276;45.520;11.018;2023-08-07T09:48:01;34.60;25.20
31675;DHT22;18276;45.520;11.018;2023-08-07T09:50:28;33.80;26.60
31675;DHT22;18276;45.520;11.018;2023-08-07T09:52:56;33.70;26.80
31675;DHT22;18276;45.520;11.018;2023-08-07T09:55:23;33.90;26.80
31675;DHT22;18276;45.520;11.018;2023-08-07T09:57:50;34.20;27.10
31675;DHT22;18276;45.520;11.018;2023-08-07T10:00:17;34.20;27.40
31675;DHT22;18276;45.520;11.018;2023-08-07T10:02:48;34.80;27.20
31675;DHT22;18276;45.520;11.018;2023-08-07T10:05:16;35.30;26.30
31675;DHT22;18276;45.520;11.018;2023-08-07T10:07:43;36.00;26.00
31675;DHT22;18276;45.520;11.018;2023-08-07T10:10:10;36.60;25.80
31675;DHT22;18276;45.520;11.018;2023-08-07T10:12:37;36.40;25.90
31675;DHT22;18276;45.520;11.018;2023-08-07T10:15:05;35.60;26.00
31675;DHT22;18276;45.520;11.018;2023-08-07T10:17:32;34.50;26.60
31675;DHT22;18276;45.520;11.018;2023-08-07T10:19:59;33.70;27.40
31675;DHT22;18276;45.520;11.018;2023-08-07T10:22:27;33.00;28.10
31675;DHT22;18276;45.520;11.018;2023-08-07T10:24:56;32.30;28.70
31675;DHT22;18276;45.520;11.018;2023-08-07T10:27:24;31.60;29.60
31675;DHT22;18276;45.520;11.018;2023-08-07T10:29:52;31.90;30.10
31675;DHT22;18276;45.520;11.018;2023-08-07T10:32:20;32.70;29.30
31675;DHT22;18276;45.520;11.018;2023-08-07T10:34:51;32.60;29.20
31675;DHT22;18276;45.520;11.018;2023-08-07T10:37:31;33.00;28.60
31675;DHT22;18276;45.520;11.018;2023-08-07T10:40:02;33.20;28.60
31675;DHT22;18276;45.520;11.018;2023-08-07T10:42:49;34.00;28.50
31675;DHT22;18276;45.520;11.018;2023-08-07T10:45:17;35.10;27.20
31675;DHT22;18276;45.520;11.018;2023-08-07T10:47:44;35.10;26.70
31675;DHT22;18276;45.520;11.018;2023-08-07T10:50:32;35.10;26.20
31675;DHT22;18276;45.520;11.018;2023-08-07T10:53:00;35.10;26.30
31675;DHT22;18276;45.520;11.018;2023-08-07T10:55:30;35.80;27.00
31675;DHT22;18276;45.520;11.018;2023-08-07T10:57:58;37.00;26.00
31675;DHT22;18276;45.520;11.018;2023-08-07T11:00:26;37.10;25.50
31675;DHT22;18276;45.520;11.018;2023-08-07T11:02:54;37.60;25.20
31675;DHT22;18276;45.520;11.018;2023-08-07T11:05:24;37.40;24.40
31675;DHT22;18276;45.520;11.018;2023-08-07T11:07:52;37.10;24.80
31675;DHT22;18276;45.520;11.018;2023-08-07T11:10:20;37.30;25.10
31675;DHT22;18276;45.520;11.018;2023-08-07T11:12:48;37.50;24.70
31675;DHT22;18276;45.520;11.018;2023-08-07T11:15:15;37.60;24.00
31675;DHT22;18276;45.520;11.018;2023-08-07T11:17:42;37.40;22.90
31675;DHT22;18276;45.520;11.018;2023-08-07T11:20:09;37.40;22.50
31675;DHT22;18276;45.520;11.018;2023-08-07T11:22:37;37.50;22.90
31675;DHT22;18276;45.520;11.018;2023-08-07T11:25:04;38.00;23.20
31675;DHT22;18276;45.520;11.018;2023-08-07T11:27:31;38.80;23.70
31675;DHT22;18276;45.520;11.018;2023-08-07T11:29:58;39.30;22.60
31675;DHT22;18276;45.520;11.018;2023-08-07T11:32:26;39.40;21.70
31675;DHT22;18276;45.520;11.018;2023-08-07T11:34:53;39.00;22.30
31675;DHT22;18276;45.520;11.018;2023-08-07T11:37:20;39.10;21.90
31675;DHT22;18276;45.520;11.018;2023-08-07T11:39:48;38.60;21.60
31675;DHT22;18276;45.520;11.018;2023-08-07T11:42:15;38.30;22.00
31675;DHT22;18276;45.520;11.018;2023-08-07T11:44:41;38.50;22.30
31675;DHT22;18276;45.520;11.018;2023-08-07T11:47:09;39.00;21.90
31675;DHT22;18276;45.520;11.018;2023-08-07T11:49:36;39.10;21.70
31675;DHT22;18276;45.520;11.018;2023-08-07T11:52:03;38.90;21.00
31675;DHT22;18276;45.520;11.018;2023-08-07T11:54:30;38.60;20.50
31675;DHT22;18276;45.520;11.018;2023-08-07T11:56:57;39.00;21.30
31675;DHT22;18276;45.520;11.018;2023-08-07T11:59:25;39.00;21.50
31675;DHT22;18276;45.520;11.018;2023-08-07T12:01:52;38.60;20.10
31675;DHT22;18276;45.520;11.018;2023-08-07T12:04:19;38.40;20.80
31675;DHT22;18276;45.520;11.018;2023-08-07T12:06:53;38.50;20.90
31675;DHT22;18276;45.520;11.018;2023-08-07T12:09:21;38.60;20.70
31675;DHT22;18276;45.520;11.018;2023-08-07T12:11:48;38.40;21.00
31675;DHT22;18276;45.520;11.018;2023-08-07T12:14:15;37.90;21.40
31675;DHT22;18276;45.520;11.018;2023-08-07T12:16:44;37.70;21.60
31675;DHT22;18276;45.520;11.018;2023-08-07T12:19:14;37.20;21.90
31675;DHT22;18276;45.520;11.018;2023-08-07T12:21:41;36.80;21.70
31675;DHT22;18276;45.520;11.018;2023-08-07T12:24:08;36.60;22.40
31675;DHT22;18276;45.520;11.018;2023-08-07T12:26:35;36.40;22.10
31675;DHT22;18276;45.520;11.018;2023-08-07T12:29:02;36.40;22.10
31675;DHT22;18276;45.520;11.018;2023-08-07T12:31:29;36.10;21.70
31675;DHT22;18276;45.520;11.018;2023-08-07T12:33:57;35.90;21.80
31675;DHT22;18276;45.520;11.018;2023-08-07T12:36:44;36.00;22.20
31675;DHT22;18276;45.520;11.018;2023-08-07T12:39:11;36.20;21.40
31675;DHT22;18276;45.520;11.018;2023-08-07T12:41:37;36.70;22.00
31675;DHT22;18276;45.520;11.018;2023-08-07T12:44:07;37.40;21.60
31675;DHT22;18276;45.520;11.018;2023-08-07T12:46:34;37.60;21.60
31675;DHT22;18276;45.520;11.018;2023-08-07T12:49:08;37.70;20.90
31675;DHT22;18276;45.520;11.018;2023-08-07T12:51:35;37.20;20.90
31675;DHT22;18276;45.520;11.018;2023-08-07T12:54:02;37.40;21.30
31675;DHT22;18276;45.520;11.018;2023-08-07T12:56:32;37.50;20.80
31675;DHT22;18276;45.520;11.018;2023-08-07T12:58:58;37.00;21.00
31675;DHT22;18276;45.520;11.018;2023-08-07T13:01:25;36.70;21.50
31675;DHT22;18276;45.520;11.018;2023-08-07T13:03:53;36.80;21.90
31675;DHT22;18276;45.520;11.018;2023-08-07T13:06:21;36.70;22.00
31675;DHT22;18276;45.520;11.018;2023-08-07T13:08:48;36.30;21.30
31675;DHT22;18276;45.520;11.018;2023-08-07T13:11:15;35.20;22.30
31675;DHT22;18276;45.520;11.018;2023-08-07T13:13:42;34.30;22.30
31675;DHT22;18276;45.520;11.018;2023-08-07T13:16:09;33.70;23.20
31675;DHT22;18276;45.520;11.018;2023-08-07T13:18:36;33.10;22.90
31675;DHT22;18276;45.520;11.018;2023-08-07T13:21:03;32.80;23.50
31675;DHT22;18276;45.520;11.018;2023-08-07T13:23:30;32.60;23.10
31675;DHT22;18276;45.520;11.018;2023-08-07T13:25:57;31.90;24.50
31675;DHT22;18276;45.520;11.018;2023-08-07T13:28:24;31.30;25.40
31675;DHT22;18276;45.520;11.018;2023-08-07T13:30:51;31.10;25.40
31675;DHT22;18276;45.520;11.018;2023-08-07T13:33:21;31.10;25.70
31675;DHT22;18276;45.520;11.018;2023-08-07T13:35:48;31.20;25.70
31675;DHT22;18276;45.520;11.018;2023-08-07T13:38:15;31.20;26.00
31675;DHT22;18276;45.520;11.018;2023-08-07T13:40:45;31.40;26.10
31675;DHT22;18276;45.520;11.018;2023-08-07T13:43:12;31.50;25.70
31675;DHT22;18276;45.520;11.018;2023-08-07T13:45:39;31.50;25.40
31675;DHT22;18276;45.520;11.018;2023-08-07T13:48:05;31.40;25.60
31675;DHT22;18276;45.520;11.018;2023-08-07T13:50:34;31.20;25.70
31675;DHT22;18276;45.520;11.018;2023-08-07T13:53:01;31.00;26.20
31675;DHT22;18276;45.520;11.018;2023-08-07T13:55:40;30.80;26.30
31675;DHT22;18276;45.520;11.018;2023-08-07T13:58:07;30.40;26.70
31675;DHT22;18276;45.520;11.018;2023-08-07T14:00:36;30.10;27.00
31675;DHT22;18276;45.520;11.018;2023-08-07T14:03:03;29.80;26.90
31675;DHT22;18276;45.520;11.018;2023-08-07T14:05:30;29.60;27.30
31675;DHT22;18276;45.520;11.018;2023-08-07T14:07:58;29.50;27.40
31675;DHT22;18276;45.520;11.018;2023-08-07T14:10:25;29.70;27.60
31675;DHT22;18276;45.520;11.018;2023-08-07T14:12:52;29.90;27.60
31675;DHT22;18276;45.520;11.018;2023-08-07T14:15:20;30.10;27.70
31675;DHT22;18276;45.520;11.018;2023-08-07T14:17:47;30.10;27.40
31675;DHT22;18276;45.520;11.018;2023-08-07T14:20:14;29.90;28.00
31675;DHT22;18276;45.520;11.018;2023-08-07T14:22:41;29.80;28.00
31675;DHT22;18276;45.520;11.018;2023-08-07T14:25:08;29.80;27.80
31675;DHT22;18276;45.520;11.018;2023-08-07T14:27:35;29.60;27.60
31675;DHT22;18276;45.520;11.018;2023-08-07T14:30:02;29.40;27.70
31675;DHT22;18276;45.520;11.018;2023-08-07T14:32:29;29.20;28.00
31675;DHT22;18276;45.520;11.018;2023-08-07T14:34:56;29.20;28.40
31675;DHT22;18276;45.520;11.018;2023-08-07T14:37:23;29.10;28.00
31675;DHT22;18276;45.520;11.018;2023-08-07T14:39:50;29.00;28.50
31675;DHT22;18276;45.520;11.018;2023-08-07T14:42:17;29.00;28.70
31675;DHT22;18276;45.520;11.018;2023-08-07T14:44:44;29.00;28.40
31675;DHT22;18276;45.520;11.018;2023-08-07T14:47:10;29.20;28.50
31675;DHT22;18276;45.520;11.018;2023-08-07T14:49:37;29.40;28.50
31675;DHT22;18276;45.520;11.018;2023-08-07T14:52:05;29.40;28.00
31675;DHT22;18276;45.520;11.018;2023-08-07T14:54:32;29.30;28.30
31675;DHT22;18276;45.520;11.018;2023-08-07T14:56:59;29.20;29.00
31675;DHT22;18276;45.520;11.018;2023-08-07T14:59:26;29.30;28.70
31675;DHT22;18276;45.520;11.018;2023-08-07T15:01:53;29.40;28.50
31675;DHT22;18276;45.520;11.018;2023-08-07T15:04:21;29.50;28.20
31675;DHT22;18276;45.520;11.018;2023-08-07T15:06:47;29.60;27.80
31675;DHT22;18276;45.520;11.018;2023-08-07T15:09:17;29.50;27.50
31675;DHT22;18276;45.520;11.018;2023-08-07T15:11:46;29.20;27.70
31675;DHT22;18276;45.520;11.018;2023-08-07T15:14:13;29.20;28.20
31675;DHT22;18276;45.520;11.018;2023-08-07T15:16:41;29.10;27.90
31675;DHT22;18276;45.520;11.018;2023-08-07T15:19:08;28.90;27.60
31675;DHT22;18276;45.520;11.018;2023-08-07T15:21:35;28.60;27.70
31675;DHT22;18276;45.520;11.018;2023-08-07T15:24:02;28.30;28.10